createdAt,value
2023-03-04T00:01:54.337Z,100.00
2023-03-04T00:04:21.884Z,100.00
2023-03-04T00:06:49.100Z,100.00
2023-03-04T00:09:16.653Z,99.51
2023-03-04T00:11:44.035Z,100.00
2023-03-04T00:14:11.760Z,100.00
2023-03-04T00:16:39.112Z,100.00
2023-03-04T00:19:06.678Z,100.00
2023-03-04T00:21:34.235Z,100.00
2023-03-04T00:24:01.811Z,100.00
2023-03-04T00:26:29.014Z,100.00
2023-03-04T00:28:56.606Z,100.00
2023-03-04T00:31:23.821Z,100.00
2023-03-04T00:33:51.330Z,100.00
2023-03-04T00:36:18.575Z,100.00
2023-03-04T00:38:46.221Z,100.00
2023-03-04T00:41:13.442Z,100.00
2023-03-04T00:43:42.436Z,100.00
2023-03-04T00:46:09.845Z,100.00
2023-03-04T00:48:38.789Z,100.00
2023-03-04T00:51:06.116Z,100.00
2023-03-04T00:53:33.800Z,100.00
2023-03-04T00:56:01.002Z,100.00
2023-03-04T00:58:28.547Z,100.00
2023-03-04T01:00:55.833Z,100.00
2023-03-04T01:03:24.579Z,100.00
2023-03-04T01:05:51.825Z,100.00
2023-03-04T01:08:19.400Z,100.00
2023-03-04T01:10:47.738Z,100.00
2023-03-04T01:13:15.486Z,100.00
2023-03-04T01:15:43.597Z,100.00
2023-03-04T01:18:11.485Z,100.00
2023-03-04T01:20:38.811Z,100.00
2023-03-04T01:23:09.162Z,100.00
2023-03-04T01:25:36.465Z,100.00
2023-03-04T01:28:04.090Z,100.00
2023-03-04T01:30:31.450Z,100.00
2023-03-04T01:32:59.077Z,100.00
2023-03-04T01:35:26.474Z,100.00
2023-03-04T01:37:54.053Z,100.00
2023-03-04T01:40:21.402Z,100.00
2023-03-04T01:42:48.967Z,100.00
2023-03-04T01:45:19.527Z,100.00
2023-03-04T01:47:49.468Z,100.00
2023-03-04T01:50:24.054Z,100.00
2023-03-04T01:52:51.814Z,100.00
2023-03-04T01:55:22.631Z,100.00
2023-03-04T01:57:52.483Z,100.00
2023-03-04T02:00:23.250Z,100.00
2023-03-04T02:02:55.225Z,100.00
2023-03-04T02:05:23.395Z,100.00
2023-03-04T02:07:55.260Z,100.00
2023-03-04T02:10:23.276Z,100.00
2023-03-04T02:12:51.685Z,100.00
2023-03-04T02:15:19.519Z,100.00
2023-03-04T02:17:47.160Z,100.00
2023-03-04T02:20:49.022Z,100.00
2023-03-04T02:23:34.660Z,100.00
2023-03-04T02:26:22.014Z,100.00
2023-03-04T02:28:54.230Z,100.00
2023-03-04T02:31:27.460Z,100.00
2023-03-04T02:33:59.189Z,100.00
2023-03-04T02:36:29.076Z,100.00
2023-03-04T02:39:01.408Z,100.00
2023-03-04T02:41:30.554Z,100.00
2023-03-04T02:43:59.507Z,100.00
2023-03-04T02:46:27.967Z,100.00
2023-03-04T02:48:55.749Z,100.00
2023-03-04T02:51:23.000Z,100.00
2023-03-04T02:53:50.582Z,100.00
2023-03-04T02:56:17.910Z,100.00
2023-03-04T02:58:45.439Z,100.00
2023-03-04T03:01:13.078Z,100.00
2023-03-04T03:03:40.728Z,100.00
2023-03-04T03:06:08.317Z,100.00
2023-03-04T03:08:35.834Z,100.00
2023-03-04T03:11:03.215Z,100.00
2023-03-04T03:13:32.729Z,100.00
2023-03-04T03:16:00.897Z,100.00
2023-03-04T03:18:28.478Z,100.00
2023-03-04T03:20:55.683Z,100.00
2023-03-04T03:23:24.051Z,100.00
2023-03-04T03:25:53.703Z,100.00
2023-03-04T03:28:21.205Z,100.00
2023-03-04T03:30:48.445Z,100.00
2023-03-04T03:33:16.109Z,100.00
2023-03-04T03:35:43.534Z,100.00
2023-03-04T03:38:12.476Z,100.00
2023-03-04T03:40:39.703Z,100.00
2023-03-04T03:43:07.293Z,100.00
2023-03-04T03:45:34.563Z,100.00
2023-03-04T03:48:02.102Z,100.00
2023-03-04T03:50:29.678Z,100.00
2023-03-04T03:52:57.529Z,100.00
2023-03-04T03:55:24.787Z,100.00
2023-03-04T03:57:52.293Z,100.00
2023-03-04T04:00:20.075Z,100.00
2023-03-04T04:02:48.148Z,100.00
2023-03-04T04:05:16.084Z,100.00
2023-03-04T04:07:43.717Z,100.00
2023-03-04T04:10:11.499Z,100.00
2023-03-04T04:12:39.259Z,100.00
2023-03-04T04:15:07.256Z,100.00
2023-03-04T04:17:34.901Z,100.00
2023-03-04T04:20:02.246Z,100.00
2023-03-04T04:22:30.122Z,100.00
2023-03-04T04:24:57.318Z,100.00
2023-03-04T04:27:24.854Z,100.00
2023-03-04T04:29:52.110Z,100.00
2023-03-04T04:32:19.694Z,100.00
2023-03-04T04:34:47.021Z,100.00
2023-03-04T04:37:14.565Z,100.00
2023-03-04T04:39:41.837Z,100.00
2023-03-04T04:42:11.299Z,100.00
2023-03-04T04:44:39.134Z,100.00
2023-03-04T04:47:07.352Z,100.00
2023-03-04T04:49:34.600Z,100.00
2023-03-04T04:52:02.114Z,100.00
2023-03-04T04:54:29.400Z,100.00
2023-03-04T04:56:56.991Z,100.00
2023-03-04T04:59:24.374Z,100.00
2023-03-04T05:01:52.057Z,100.00
2023-03-04T05:04:19.375Z,100.00
2023-03-04T05:06:46.879Z,100.00
2023-03-04T05:09:14.369Z,100.00
2023-03-04T05:11:41.899Z,100.00
2023-03-04T05:14:09.116Z,100.00
2023-03-04T05:16:36.595Z,100.00
2023-03-04T05:19:04.202Z,100.00
2023-03-04T05:21:31.804Z,100.00
2023-03-04T05:23:59.051Z,100.00
2023-03-04T05:26:26.558Z,100.00
2023-03-04T05:28:53.821Z,100.00
2023-03-04T05:31:21.634Z,100.00
2023-03-04T05:33:48.877Z,100.00
2023-03-04T05:36:16.898Z,100.00
2023-03-04T05:38:44.187Z,100.00
2023-03-04T05:41:11.778Z,100.00
2023-03-04T05:43:42.883Z,100.00
2023-03-04T05:46:15.369Z,100.00
2023-03-04T05:48:43.817Z,100.00
2023-03-04T05:51:11.354Z,100.00
2023-03-04T05:53:39.449Z,100.00
2023-03-04T05:56:11.510Z,100.00
2023-03-04T05:58:38.901Z,100.00
2023-03-04T06:01:06.847Z,100.00
2023-03-04T06:03:35.354Z,100.00
2023-03-04T06:06:03.021Z,100.00
2023-03-04T06:08:30.297Z,100.00
2023-03-04T06:10:59.228Z,100.00
2023-03-04T06:13:26.942Z,100.00
2023-03-04T06:15:56.356Z,100.00
2023-03-04T06:18:24.435Z,100.00
2023-03-04T06:20:59.945Z,100.00
2023-03-04T06:23:27.927Z,100.00
2023-03-04T06:25:57.317Z,100.00
2023-03-04T06:28:24.880Z,100.00
2023-03-04T06:30:53.718Z,100.00
2023-03-04T06:33:21.398Z,99.42
2023-03-04T06:35:49.322Z,98.04
2023-03-04T06:38:16.696Z,98.63
2023-03-04T06:40:45.924Z,96.62
2023-03-04T06:43:13.215Z,96.53
2023-03-04T06:45:40.742Z,95.93
2023-03-04T06:48:08.151Z,94.91
2023-03-04T06:50:35.764Z,95.41
2023-03-04T06:53:03.055Z,95.85
2023-03-04T06:55:30.580Z,94.33
2023-03-04T06:57:57.897Z,95.09
2023-03-04T07:00:25.566Z,93.19
2023-03-04T07:02:55.059Z,91.07
2023-03-04T07:05:22.810Z,90.80
2023-03-04T07:07:50.664Z,89.31
2023-03-04T07:10:19.536Z,88.97
2023-03-04T07:12:47.170Z,88.70
2023-03-04T07:15:14.796Z,87.94
2023-03-04T07:17:42.066Z,86.38
2023-03-04T07:20:10.320Z,85.43
2023-03-04T07:22:37.912Z,85.12
2023-03-04T07:25:06.173Z,85.06
2023-03-04T07:27:33.467Z,85.16
2023-03-04T07:30:01.485Z,84.54
2023-03-04T07:32:28.824Z,84.63
2023-03-04T07:34:56.459Z,83.99
2023-03-04T07:37:23.891Z,84.51
2023-03-04T07:39:51.481Z,82.15
2023-03-04T07:42:18.959Z,80.71
2023-03-04T07:44:55.284Z,79.31
2023-03-04T07:47:22.573Z,75.25
2023-03-04T07:49:50.116Z,71.27
2023-03-04T07:52:17.420Z,69.08
2023-03-04T07:54:44.973Z,67.59
2023-03-04T07:57:12.304Z,60.78
2023-03-04T07:59:39.972Z,56.76
2023-03-04T08:02:07.850Z,50.80
2023-03-04T08:04:35.559Z,50.38
2023-03-04T08:07:02.976Z,49.71
2023-03-04T08:09:31.489Z,49.49
2023-03-04T08:11:58.780Z,47.43
2023-03-04T08:14:26.328Z,47.79
2023-03-04T08:16:53.589Z,47.08
2023-03-04T08:19:21.208Z,46.80
2023-03-04T08:21:48.460Z,45.72
2023-03-04T08:24:16.069Z,44.88
2023-03-04T08:26:47.364Z,44.65
2023-03-04T08:29:21.254Z,44.23
2023-03-04T08:31:50.817Z,43.95
2023-03-04T08:34:20.555Z,43.93
2023-03-04T08:36:47.856Z,43.12
2023-03-04T08:39:17.130Z,43.33
2023-03-04T08:41:45.101Z,44.34
2023-03-04T08:44:13.537Z,44.86
2023-03-04T08:46:42.548Z,44.21
2023-03-04T08:49:14.607Z,43.91
2023-03-04T08:51:42.062Z,44.04
2023-03-04T08:54:09.751Z,43.44
2023-03-04T08:56:36.974Z,43.31
2023-03-04T08:59:04.677Z,43.37
2023-03-04T09:01:32.033Z,43.97
2023-03-04T09:03:59.643Z,42.72
2023-03-04T09:06:26.970Z,42.57
2023-03-04T09:08:54.515Z,42.82
2023-03-04T09:11:21.815Z,42.13
2023-03-04T09:13:51.298Z,40.29
2023-03-04T09:16:18.659Z,39.75
2023-03-04T09:18:46.328Z,39.55
2023-03-04T09:21:15.000Z,39.78
2023-03-04T09:23:42.628Z,39.22
2023-03-04T09:26:25.226Z,36.74
2023-03-04T09:28:58.656Z,36.49
2023-03-04T09:31:27.216Z,36.16
2023-03-04T09:33:56.140Z,36.68
2023-03-04T09:36:23.850Z,36.17
2023-03-04T09:38:51.660Z,36.67
2023-03-04T09:41:23.945Z,36.42
2023-03-04T09:43:54.180Z,36.32
2023-03-04T09:46:35.642Z,36.38
2023-03-04T09:49:06.707Z,36.04
2023-03-04T09:51:44.410Z,36.37
2023-03-04T09:54:33.531Z,37.21
2023-03-04T09:57:18.010Z,37.06
2023-03-04T09:59:56.753Z,36.52
2023-03-04T10:02:44.004Z,35.81
2023-03-04T10:05:18.644Z,35.06
2023-03-04T10:07:55.097Z,35.38
2023-03-04T10:10:29.469Z,35.61
2023-03-04T10:12:59.979Z,35.33
2023-03-04T10:15:41.903Z,35.76
2023-03-04T10:18:12.165Z,36.00
2023-03-04T10:21:07.308Z,35.23
2023-03-04T10:23:37.678Z,33.83
2023-03-04T10:26:14.739Z,32.14
2023-03-04T10:28:42.353Z,29.51
2023-03-04T10:31:37.126Z,28.83
2023-03-04T10:34:06.124Z,28.19
2023-03-04T10:36:58.475Z,28.28
2023-03-04T10:39:40.891Z,29.78
2023-03-04T10:42:14.508Z,29.60
2023-03-04T10:45:04.170Z,30.16
2023-03-04T10:47:33.102Z,29.10
2023-03-04T10:50:02.724Z,26.44
2023-03-04T10:52:53.304Z,26.99
2023-03-04T10:55:25.891Z,27.01
2023-03-04T10:58:03.150Z,25.65
2023-03-04T11:00:33.601Z,24.57
2023-03-04T11:03:25.295Z,24.40
2023-03-04T11:06:20.098Z,24.79
2023-03-04T11:08:59.054Z,24.37
2023-03-04T11:11:53.852Z,23.99
2023-03-04T11:14:30.425Z,23.44
2023-03-04T11:17:18.931Z,23.95
2023-03-04T11:19:55.968Z,25.61
2023-03-04T11:22:25.677Z,27.04
2023-03-04T11:24:59.670Z,28.28
2023-03-04T11:27:38.395Z,28.72
2023-03-04T11:30:27.200Z,28.65
2023-03-04T11:33:03.098Z,29.56
2023-03-04T11:36:15.656Z,30.24
2023-03-04T11:38:49.475Z,30.94
2023-03-04T11:41:23.797Z,30.46
2023-03-04T11:43:51.422Z,29.22
2023-03-04T11:46:49.137Z,29.05
2023-03-04T11:49:50.581Z,29.18
2023-03-04T11:53:03.129Z,27.37
2023-03-04T11:55:30.278Z,27.44
2023-03-04T11:58:03.618Z,27.67
2023-03-04T12:01:10.658Z,27.64
2023-03-04T12:04:10.743Z,28.19
2023-03-04T12:06:50.647Z,28.61
2023-03-04T12:09:26.475Z,27.98
2023-03-04T12:12:03.361Z,27.20
2023-03-04T12:14:39.227Z,27.68
2023-03-04T12:17:21.263Z,27.03
2023-03-04T12:20:15.792Z,26.87
2023-03-04T12:23:07.801Z,27.63
2023-03-04T12:25:38.362Z,27.20
2023-03-04T12:28:31.315Z,27.67
2023-03-04T12:31:11.100Z,28.32
2023-03-04T12:34:03.072Z,28.66
2023-03-04T12:36:49.393Z,29.39
2023-03-04T12:39:48.828Z,29.05
2023-03-04T12:43:00.944Z,29.23
2023-03-04T12:46:10.002Z,30.40
2023-03-04T12:48:57.782Z,29.50
2023-03-04T12:51:42.710Z,29.49
2023-03-04T12:54:31.262Z,29.30
2023-03-04T12:57:12.674Z,29.52
2023-03-04T12:59:58.032Z,29.37
2023-03-04T13:02:54.128Z,30.41
2023-03-04T13:05:49.753Z,29.52
2023-03-04T13:08:25.074Z,29.04
2023-03-04T13:10:53.598Z,28.54
2023-03-04T13:13:34.592Z,29.10
2023-03-04T13:16:05.433Z,28.73
2023-03-04T13:18:37.757Z,28.09
2023-03-04T13:21:23.238Z,28.19
2023-03-04T13:23:52.129Z,27.71
2023-03-04T13:26:31.772Z,27.91
2023-03-04T13:29:14.286Z,26.91
2023-03-04T13:32:05.715Z,27.32
2023-03-04T13:34:57.734Z,27.51
2023-03-04T13:37:33.104Z,28.22
2023-03-04T13:40:27.476Z,28.33
2023-03-04T13:42:55.057Z,27.37
2023-03-04T13:45:39.210Z,28.32
2023-03-04T13:48:25.045Z,28.81
2023-03-04T13:50:53.256Z,29.10
2023-03-04T13:54:00.197Z,29.16
2023-03-04T13:56:39.491Z,29.11
2023-03-04T13:59:22.179Z,29.67
2023-03-04T14:02:01.200Z,29.93
2023-03-04T14:04:35.301Z,30.82
2023-03-04T14:07:19.068Z,30.82
2023-03-04T14:10:07.611Z,31.46
2023-03-04T14:12:37.685Z,31.37
2023-03-04T14:15:14.041Z,32.15
2023-03-04T14:17:47.425Z,31.58
2023-03-04T14:20:28.991Z,32.34
2023-03-04T14:22:57.295Z,33.36
2023-03-04T14:25:24.885Z,35.04
2023-03-04T14:28:04.297Z,36.28
2023-03-04T14:30:42.054Z,37.70
2023-03-04T14:33:18.118Z,38.28
2023-03-04T14:35:51.150Z,38.55
2023-03-04T14:38:26.325Z,38.42
2023-03-04T14:41:02.781Z,37.95
2023-03-04T14:43:33.137Z,36.98
2023-03-04T14:46:03.050Z,36.70
2023-03-04T14:48:33.766Z,36.06
2023-03-04T14:51:02.785Z,35.76
2023-03-04T14:53:31.953Z,36.32
2023-03-04T14:56:10.095Z,35.06
2023-03-04T14:58:53.706Z,35.17
2023-03-04T15:01:29.100Z,35.59
2023-03-04T15:04:08.074Z,35.09
2023-03-04T15:06:39.542Z,35.49
2023-03-04T15:09:19.171Z,35.48
2023-03-04T15:11:52.033Z,35.42
2023-03-04T15:14:42.596Z,35.09
2023-03-04T15:17:38.506Z,34.43
2023-03-04T15:20:05.768Z,34.60
2023-03-04T15:22:55.906Z,33.70
2023-03-04T15:25:23.902Z,32.25
2023-03-04T15:27:54.073Z,31.73
2023-03-04T15:30:24.082Z,32.48
2023-03-04T15:32:51.905Z,31.50
2023-03-04T15:35:20.850Z,31.70
2023-03-04T15:37:50.515Z,32.20
2023-03-04T15:40:26.243Z,32.15
2023-03-04T15:42:56.714Z,32.46
2023-03-04T15:45:27.566Z,31.62
2023-03-04T15:47:55.183Z,31.84
2023-03-04T15:50:26.853Z,31.84
2023-03-04T15:52:57.113Z,32.73
2023-03-04T15:55:24.848Z,32.66
2023-03-04T15:57:55.649Z,33.03
2023-03-04T16:00:23.969Z,33.15
2023-03-04T16:02:51.579Z,32.81
2023-03-04T16:05:19.093Z,32.89
2023-03-04T16:07:49.490Z,33.36
2023-03-04T16:10:26.706Z,33.29
2023-03-04T16:12:55.037Z,33.74
2023-03-04T16:15:28.358Z,33.55
2023-03-04T16:17:56.912Z,33.22
2023-03-04T16:20:28.940Z,33.76
2023-03-04T16:23:00.316Z,33.74
2023-03-04T16:25:29.240Z,34.05
2023-03-04T16:27:59.079Z,34.38
2023-03-04T16:30:27.306Z,33.97
2023-03-04T16:32:55.158Z,34.12
2023-03-04T16:35:27.845Z,34.57
2023-03-04T16:37:55.794Z,34.66
2023-03-04T16:40:31.100Z,34.96
2023-03-04T16:42:58.888Z,34.94
2023-03-04T16:45:30.353Z,35.75
2023-03-04T16:47:58.323Z,35.46
2023-03-04T16:50:28.766Z,35.97
2023-03-04T16:52:56.522Z,35.99
2023-03-04T16:55:29.087Z,36.55
2023-03-04T16:57:57.969Z,36.44
2023-03-04T17:00:27.975Z,36.76
2023-03-04T17:03:00.922Z,36.69
2023-03-04T17:05:31.136Z,36.55
2023-03-04T17:07:58.772Z,37.21
2023-03-04T17:10:26.518Z,37.43
2023-03-04T17:12:54.376Z,37.52
2023-03-04T17:15:21.623Z,37.39
2023-03-04T17:17:49.285Z,37.55
2023-03-04T17:20:19.007Z,37.68
2023-03-04T17:22:46.693Z,37.96
2023-03-04T17:25:15.053Z,38.55
2023-03-04T17:27:42.972Z,38.59
2023-03-04T17:30:12.759Z,39.25
2023-03-04T17:32:40.933Z,39.23
2023-03-04T17:35:09.051Z,39.43
2023-03-04T17:37:37.466Z,39.20
2023-03-04T17:40:08.673Z,39.56
2023-03-04T17:42:36.366Z,39.58
2023-03-04T17:45:04.120Z,39.60
2023-03-04T17:47:31.843Z,39.98
2023-03-04T17:49:59.109Z,40.06
2023-03-04T17:52:26.668Z,40.91
2023-03-04T17:54:53.971Z,40.66
2023-03-04T17:57:21.514Z,40.87
2023-03-04T17:59:48.831Z,40.80
2023-03-04T18:02:16.873Z,40.41
2023-03-04T18:04:46.936Z,41.27
2023-03-04T18:07:14.861Z,41.61
2023-03-04T18:09:43.318Z,41.82
2023-03-04T18:12:11.026Z,42.18
2023-03-04T18:14:38.326Z,42.26
2023-03-04T18:17:05.988Z,42.42
2023-03-04T18:19:33.290Z,43.33
2023-03-04T18:22:00.784Z,43.25
2023-03-04T18:24:28.174Z,43.25
2023-03-04T18:26:56.937Z,43.73
2023-03-04T18:29:24.231Z,43.78
2023-03-04T18:31:51.917Z,43.52
2023-03-04T18:34:19.454Z,43.19
2023-03-04T18:36:48.103Z,43.51
2023-03-04T18:39:17.551Z,43.64
2023-03-04T18:41:45.150Z,43.78
2023-03-04T18:44:12.526Z,44.09
2023-03-04T18:46:47.380Z,43.82
2023-03-04T18:49:15.328Z,44.06
2023-03-04T18:51:42.926Z,44.20
2023-03-04T18:54:10.293Z,44.40
2023-03-04T18:56:46.263Z,44.52
2023-03-04T18:59:24.075Z,45.09
2023-03-04T19:01:53.209Z,46.06
2023-03-04T19:04:23.361Z,45.16
2023-03-04T19:06:50.925Z,45.34
2023-03-04T19:09:18.264Z,45.49
2023-03-04T19:11:46.187Z,45.92
2023-03-04T19:14:13.456Z,46.89
2023-03-04T19:16:41.105Z,46.72
2023-03-04T19:19:08.357Z,47.31
2023-03-04T19:21:39.312Z,47.64
2023-03-04T19:24:07.060Z,47.73
2023-03-04T19:26:35.129Z,47.84
2023-03-04T19:29:02.468Z,48.08
2023-03-04T19:31:29.987Z,47.70
2023-03-04T19:33:57.238Z,47.45
2023-03-04T19:36:26.507Z,48.10
2023-03-04T19:38:55.487Z,47.33
2023-03-04T19:41:23.743Z,48.09
2023-03-04T19:43:51.025Z,47.92
2023-03-04T19:46:18.774Z,48.34
2023-03-04T19:48:46.146Z,48.12
2023-03-04T19:51:22.752Z,47.49
2023-03-04T19:53:53.108Z,48.37
2023-03-04T19:56:22.209Z,47.83
2023-03-04T19:58:50.596Z,48.21
2023-03-04T20:01:21.022Z,48.19
2023-03-04T20:03:48.309Z,48.49
2023-03-04T20:06:15.924Z,49.02
2023-03-04T20:08:43.414Z,48.88
2023-03-04T20:11:14.088Z,49.08
2023-03-04T20:13:41.378Z,49.08
2023-03-04T20:16:11.271Z,49.43
2023-03-04T20:18:39.795Z,49.47
2023-03-04T20:21:08.113Z,49.50
2023-03-04T20:23:35.888Z,49.25
2023-03-04T20:26:04.393Z,48.43
2023-03-04T20:28:32.614Z,49.20
2023-03-04T20:31:31.593Z,49.64
2023-03-04T20:33:59.942Z,49.13
2023-03-04T20:36:29.765Z,48.99
2023-03-04T20:39:02.406Z,49.46
2023-03-04T20:41:32.985Z,49.13
2023-03-04T20:44:01.031Z,49.58
2023-03-04T20:46:34.607Z,49.94
2023-03-04T20:49:05.747Z,49.46
2023-03-04T20:51:34.471Z,49.70
2023-03-04T20:54:03.687Z,49.66
2023-03-04T20:56:31.726Z,49.88
2023-03-04T20:59:03.772Z,49.40
2023-03-04T21:01:32.864Z,49.89
2023-03-04T21:04:00.778Z,49.47
2023-03-04T21:06:29.281Z,49.30
2023-03-04T21:08:59.957Z,49.73
2023-03-04T21:11:27.669Z,49.82
2023-03-04T21:13:57.601Z,49.53
2023-03-04T21:16:31.720Z,49.33
2023-03-04T21:19:00.055Z,49.92
2023-03-04T21:21:29.074Z,49.97
2023-03-04T21:23:58.474Z,50.65
2023-03-04T21:26:26.889Z,50.25
2023-03-04T21:28:54.658Z,50.27
2023-03-04T21:31:24.047Z,50.32
2023-03-04T21:33:55.913Z,50.38
2023-03-04T21:36:23.552Z,50.71
2023-03-04T21:38:51.275Z,51.01
2023-03-04T21:41:22.279Z,50.82
2023-03-04T21:43:50.215Z,50.61
2023-03-04T21:46:18.426Z,50.32
2023-03-04T21:48:47.660Z,50.37
2023-03-04T21:51:16.858Z,50.95
2023-03-04T21:53:44.256Z,50.63
2023-03-04T21:56:12.806Z,50.97
2023-03-04T21:58:42.831Z,50.53
2023-03-04T22:01:20.356Z,50.74
2023-03-04T22:03:49.988Z,50.77
2023-03-04T22:06:23.348Z,51.64
2023-03-04T22:08:52.336Z,50.91
2023-03-04T22:11:21.350Z,51.42
2023-03-04T22:13:52.644Z,51.38
2023-03-04T22:16:20.355Z,51.65
2023-03-04T22:18:47.780Z,52.04
2023-03-04T22:21:16.999Z,51.44
2023-03-04T22:23:44.532Z,51.71
2023-03-04T22:26:31.902Z,51.56
2023-03-04T22:29:01.462Z,51.42
2023-03-04T22:31:34.135Z,51.62
2023-03-04T22:34:11.606Z,51.77
2023-03-04T22:36:44.834Z,51.37
2023-03-04T22:39:19.390Z,51.82
2023-03-04T22:41:47.976Z,51.38
2023-03-04T22:44:15.582Z,51.57
2023-03-04T22:46:43.749Z,52.62
2023-03-04T22:49:13.951Z,52.53
2023-03-04T22:51:43.374Z,52.81
2023-03-04T22:54:12.877Z,52.97
2023-03-04T22:56:40.753Z,53.48
2023-03-04T22:59:08.216Z,53.43
2023-03-04T23:01:35.813Z,53.25
2023-03-04T23:04:03.514Z,53.33
2023-03-04T23:06:31.942Z,53.78
2023-03-04T23:09:00.207Z,54.26
2023-03-04T23:11:30.994Z,54.14
2023-03-04T23:13:59.178Z,54.48
2023-03-04T23:16:29.659Z,54.56
2023-03-04T23:18:59.386Z,55.16
2023-03-04T23:21:28.488Z,54.66
2023-03-04T23:23:56.092Z,55.04
2023-03-04T23:26:26.925Z,55.03
2023-03-04T23:28:57.499Z,55.20
2023-03-04T23:31:25.941Z,55.24
2023-03-04T23:33:57.586Z,55.02
2023-03-04T23:36:26.675Z,55.93
2023-03-04T23:38:54.106Z,56.03
2023-03-04T23:41:24.550Z,56.85
2023-03-04T23:43:56.670Z,56.42
2023-03-04T23:46:25.916Z,55.80
2023-03-04T23:48:54.669Z,56.20
2023-03-04T23:51:25.954Z,56.81
2023-03-04T23:53:53.207Z,57.02
2023-03-04T23:56:26.879Z,57.50
2023-03-04T23:58:55.197Z,57.00
